Latest METAR/SPECI Reports

LROP
METAR LROP 221730Z 36007KT CAVOK 23/19 Q1007 NOSIG=
LRTR
METAR LRTR 221730Z 14003KT 090V180 CAVOK 22/21 Q1009 R11/290095=
LRCL
METAR LRCL 221730Z 24008KT 9999 -RA FEW047CB BKN061 20/19 Q1009
R07/29//95=
LRSB
SPECI LRSB 221738Z 17004KT 9999 SCT040 23/19 Q1010 R27/CLRD//=
LRBS
METAR LRBS 221730Z 34004KT 300V020 CAVOK 23/16 Q1008 NOSIG=
LRCK
METAR LRCK 221730Z 19013KT 9999 SCT030CB 18/18 Q1008 RETS
R18/290595 BECMG NSC=
LRSV
SPECI LRSV 221750Z 24016KT 9999 TS SCT045CB 23/15 Q1009=
LRIA
METAR LRIA 221730Z 31005KT 240V340 CAVOK 24/17 Q1007=
LRTM
SPECI LRTM 221740Z AUTO 23009KT 9999 FEW110/// BKN140/// 22/18
Q1009=
LROD
METAR LROD 221730Z 25005KT 9999 FEW035 24/18 Q1009=
LRSM
METAR LRSM 221730Z AUTO 25003KT 210V300 9999 FEW170/// 22/19 Q1009=
LRBM
METAR LRBM 221730Z AUTO 30004KT 270V350 9999 FEW015/// SCT190///
25/17 Q1008=
LRAR
METAR LRAR 221730Z AUTO 26002KT 9999 NCD 22/20 Q1008=
LRCV
METAR LRCV 221730Z AUTO 04003KT 9999 NCD 27/18 Q1007=
LRTC
METAR LRTC 221730Z AUTO 21005KT 9999 -SHRA FEW047/// SCT140///
BKN200/// 23/21 Q1007=
LRBC
METAR LRBC 221730Z 34006KT CAVOK 21/19 Q1008 R16/CLRD//=
LRBO
METAR LRBO 221700Z VRB03KT 9999 BKN150 22/19 Q1007 BLU BLU=
LRCT
METAR LRCT 221700Z 35009KT 9999 -SHRA VCTS FEW040CB BKN080 19/18 Q1009 BLU BLU=
LRFT
Report more than 3 hours old: METAR LRFT 201200Z 29010KT 9999 SCT050 29/20 Q1008 BLU BLU=
LRTZ
METAR LRTZ 221700Z 30015G25KT 9999 VCTS SCT025TCU BKN100 23/18 Q1009 BLU BLU=

Latest TAF reports

LROP
TAF LROP 221700Z 2218/2318 VRB04KT CAVOK TEMPO 2220/2224 SCT040CB
    PROB40 TEMPO 2220/2224 VRB15G25KT 5000 TSRA TEMPO 2306/2310 5000
    -SHRA SCT015 SCT040CB TEMPO 2310/2318 VRB20KT 5000 TSRA SCT015
    SCT040CB=
LRTR
TAF LRTR 221700Z 2218/2318 VRB04KT CAVOK PROB40 TEMPO 2302/2307 5000
    -TSRA SCT035CB TEMPO 2307/2316 5000 -TSRA SCT040CB PROB40
    2309/2312 VRB20KT 3000 TSRA BKN010 BKN030CB=
LRCL
TAF LRCL 221700Z 2218/2303 27007KT 9999 SCT040CB BKN060 PROB30 TEMPO
    2218/2219 5000 -SHRA BECMG 2219/2221 NSC PROB30 TEMPO 2221/2303
    SCT040CB=
LRSB
TAF LRSB 221700Z 2218/2318 VRB04KT 9999 SCT035 TEMPO 2306/2310
    FEW035CB BKN050 TEMPO 2310/2316 VRB15G25KT 3000 TSRA SCT010
    BKN030CB=
LRBS
TAF LRBS 221700Z 2218/2318 VRB04KT CAVOK TEMPO 2220/2224 SCT040CB
    PROB40 TEMPO 2220/2224 VRB15G25KT 5000 TSRA TEMPO 2306/2310 5000
    -SHRA SCT015 SCT040CB TEMPO 2310/2318 VRB20KT 5000 TSRA SCT015
    SCT040CB=
LRCK
TAF COR LRCK 221743Z 2218/2318 19008KT 9999 SCT035CB BECMG 2219/2221
    NSC TEMPO 2221/2302 5000 BR BECMG 2302/2304 27012KT SCT040CB
    BECMG 2305/2307 5000 -SHRA TEMPO 2309/2315 VRB20KT 3000 TSRA
    SCT010 BKN035CB=
LRSV
TAF LRSV 221700Z 2218/2303 24010KT 9999 SCT045CB TEMPO 2218/2220
    VRB15G25KT 5000 -TSRA BECMG 2220/2222 32006KT NSC=
LRIA
TAF LRIA 221700Z 2218/2303 30005KT CAVOK TEMPO 2219/2221 FEW045CB=
LRTM
TAF AMD LRTM 221706Z 2217/2224 CNL=
LROD
TAF LROD 221700Z 2218/2303 VRB04KT 9999 FEW035 TEMPO 2218/2220
    FEW035CB PROB30 2218/2220 -TSRA PROB40 TEMPO 2223/2303 3000 BR=
LRSM
Report more than 12 hours old: TAF AMD LRSM 211717Z 2117/2124 CNL=
LRBM
Report more than 12 hours old: TAF AMD LRBM 211717Z 2117/2124 CNL=
LRAR
TAF AMD LRAR 221704Z 2217/2224 CNL=
LRCV
TAF LRCV 221700Z 2218/2303 VRB04KT CAVOK BECMG 2219/2221 SCT010
    SCT040CB TEMPO 2221/2303 VRB20KT 5000 TSRA=
LRTC
TAF AMD LRTC 221700Z 2217/2224 CNL=
LRBC
TAF LRBC 221700Z 2218/2303 VRB04KT CAVOK=
LRBO
TAF LRBO 221700Z 2218/2318 30006KT 9999 SCT100 BECMG 2306/2308 04010KT SCT050
         BECMG 2309/2311 SCT040CB BKN070 BECMG 2312/2314 5000 TSRA BKN030CB OVC050=
LRCT
TAF LRCT 221700Z 2218/2318 32005KT 9999 FEW060 SCT120
         PROB30 TEMPO 2217/2221 VRB15KT 7000 SHRA FEW040CB BKN090
         TEMPO 2222/2301 7000 SKC PROB30 TEMPO 2302/2306 VRB03KT 0800 FG BKN002
         BECMG 2309/2311 36006KT FEW040 BKN070
         TEMPO 2312/2316 VRB15KT 7000 SHRA SCT030CB OVC070=
LRFT
Report more than 12 hours old: TAF LRFT 201100Z 2012/2112 30012KT 9999 SCT070
         PROB40 TEMPO 2012/2017 3000 TSRA BR SCT020 BKN050CB
         TEMPO 2023/2103 5000 TSRA BR BKN020 BKN050CB OVC060=
LRTZ
TAF LRTZ 221700Z 2218/2318 24008KT 9999 SCT030 BKN090
         TEMPO 2118/2120 4000 TSRA SCT010 BKN020CB BKN050
         TEMPO 2302/2306 3000 BR SCT010 TEMPO 2312/2316 7000 SHRA SCT015 BKN025CB BKN070=

Valid WARNINGS

LRBB SIGMET 13 VALID 221630/221830 LROM- LRBB BUCURESTI FIR FRQ TS OBS AT 1615Z WI N4350 E02745 - N4515 E02830 - N4515 E02915 - N4345 E02835 - N4350 E02745 TOP FL450 MOV ESE 20KT WKN=
LRSV WS WRNG 1 VALID 221755/221855 WS IN APCH FCST=
LRSV AD WRNG 2 VALID 221735/221835 TS FCST INTSF=